Bei Facebook empfehlenBei Twitter postenGoogle plusPinterest

Das Wetter im Erzgebirge am 09.02.2015

Wetter und Klima am 09.02.2015 Holzhau im Erzgebirge (630m ü.NN)
Letzte gemessene Temperatur und Uhrzeit der Messung23:45:00 Uhr0.60 °C
Temperatur (Maximum / Höchstwert) und Uhrzeit der Messung22:15:00 Uhr0.90 °C
Temperatur (Minimum / Tiefstwert) und Uhrzeit der Messung00:15:00-6.60 °C
Errechneter Absolutwert der Temperaturschwankungen zwischen Tmin und Tmax des Tages7.50 K
Errechnete Tagesmitteltemperatur-0.84167 °C
Gesamt - Niederschlag des Tages (in flüssiger Form)9.84 Liter / m²
Luftdruck (Maximum / Höchstwert) und Zeitpunkt der Messung23:45:00 Uhr1020.20 hPa
Luftdruck (Minimum / Tiefstwert) und Zeitpunkt der Messung08:15:00 Uhr1015.00 hPa
Errechneter Absolutwert der Luftdruckschwankungen des Tages5.20 hPa
Höchste gemessene Windgeschwindigkeit und Uhrzeit der Messung00:30:00 Uhr16.20 km/h
Errechnete Windhäufigkeit in Relation zu den Messwerten des Tages34.37500 %
Niedrigste Windkühle (Windchill) und Zeitpunkt der Messung00:30:00 Uhr-12.20 °C
Taupunkt (Maximum / Höchstwert) und Uhrzeit der Messung22:15:00 Uhr0.00 °C
Taupunkt (Minimum / Tiefstwert) und Uhrzeit der Messung00:00:00-9.80 °C
Anzahl der automatisch eingelesenen Messwerte 96

Detaillierte Wetter- und Klima- Messwerte für den 09.02.2015 in Holzhau im Erzgebirge (630m ü.NN)
ZeitTemperaturLuftdruckRel. LuftfeuchteWindWindrichtungWindchillTaupunktNiederschlag l/m²
23:45:000.60 °C1020.20 hPa94.00 %-0.30 °C9.84
23:30:000.80 °C1020.20 hPa94.00 %3.96 km/hW0.80 °C-0.10 °C9.84
23:15:000.80 °C1019.90 hPa94.00 %6.84 km/hW-1.40 °C-0.10 °C9.84
23:00:000.80 °C1020.20 hPa94.00 %-0.10 °C9.32
22:45:000.80 °C1020.10 hPa94.00 %6.12 km/hWNW-1.20 °C-0.10 °C9.32
22:30:000.80 °C1019.90 hPa94.00 %-0.10 °C8.81
22:15:000.90 °C1019.80 hPa94.00 %0.00 °C8.81
22:00:000.90 °C1019.60 hPa94.00 %0.00 °C8.81
21:45:000.90 °C1019.60 hPa94.00 %0.00 °C8.29
21:30:000.90 °C1019.50 hPa94.00 %0.00 °C8.29
21:15:000.90 °C1019.30 hPa94.00 %0.00 °C8.29
21:00:000.90 °C1019.30 hPa94.00 %0.00 °C7.77
20:45:000.90 °C1019.10 hPa94.00 %0.00 °C7.77
20:30:000.90 °C1019.10 hPa94.00 %0.00 °C7.25
20:15:000.90 °C1019.10 hPa94.00 %8.28 km/hWSW-1.80 °C0.00 °C7.25
20:00:000.90 °C1018.90 hPa94.00 %0.00 °C6.73
19:45:000.90 °C1018.70 hPa94.00 %0.00 °C6.73
19:30:000.80 °C1018.60 hPa94.00 %-0.10 °C5.70
19:15:000.60 °C1018.30 hPa94.00 %4.32 km/hNW0.60 °C-0.30 °C5.70
19:00:000.50 °C1018.30 hPa94.00 %-0.40 °C5.18
18:45:000.60 °C1018.30 hPa94.00 %-0.30 °C5.18
18:30:000.70 °C1018.00 hPa94.00 %-0.20 °C5.18
18:15:000.70 °C1017.80 hPa94.00 %-0.20 °C4.66
18:00:000.70 °C1017.50 hPa94.00 %-0.20 °C4.66
17:45:000.60 °C1017.30 hPa94.00 %-0.30 °C4.14
17:30:000.60 °C1017.30 hPa94.00 %3.24 km/hW0.60 °C-0.30 °C4.14
17:15:000.80 °C1017.10 hPa94.00 %7.20 km/hWNW-1.50 °C-0.10 °C4.14
17:00:000.80 °C1016.80 hPa94.00 %-0.10 °C3.63
16:45:000.70 °C1016.70 hPa94.00 %7.92 km/hWNW-1.90 °C-0.20 °C3.63
16:30:000.80 °C1016.60 hPa94.00 %4.68 km/hWNW0.80 °C-0.10 °C3.11
16:15:000.80 °C1016.20 hPa94.00 %-0.10 °C3.11
16:00:000.70 °C1016.50 hPa94.00 %-0.20 °C2.59
15:45:000.80 °C1016.10 hPa94.00 %-0.10 °C2.59
15:30:000.80 °C1016.00 hPa94.00 %5.04 km/hW-0.70 °C-0.10 °C2.07
15:15:000.80 °C1016.00 hPa94.00 %-0.10 °C2.07
15:00:000.80 °C1015.80 hPa93.00 %3.96 km/hWNW0.80 °C-0.20 °C1.55
14:45:000.80 °C1015.70 hPa93.00 %-0.20 °C1.55
14:30:000.90 °C1015.60 hPa93.00 %-0.10 °C1.04
14:15:000.80 °C1015.60 hPa93.00 %4.68 km/hNNW0.80 °C-0.20 °C0.52
14:00:000.80 °C1015.80 hPa93.00 %-0.20 °C 
13:45:000.80 °C1015.60 hPa93.00 %-0.20 °C 
13:30:000.80 °C1015.70 hPa93.00 %13.68 km/hWSW-3.20 °C-0.20 °C 
13:15:000.80 °C1015.70 hPa93.00 %6.12 km/hNW-1.20 °C-0.20 °C 
13:00:000.80 °C1015.90 hPa93.00 %12.24 km/hWNW-2.90 °C-0.20 °C 
12:45:000.80 °C1016.10 hPa93.00 %4.68 km/hNW0.80 °C-0.20 °C 
12:30:000.80 °C1016.10 hPa93.00 %-0.20 °C 
12:15:000.60 °C1015.90 hPa94.00 %-0.30 °C 
12:00:000.60 °C1015.90 hPa94.00 %-0.30 °C 
11:45:000.50 °C1016.20 hPa94.00 %-0.40 °C 
11:30:000.40 °C1016.00 hPa93.00 %-0.60 °C 
11:15:000.40 °C1016.00 hPa93.00 %-0.60 °C 
11:00:000.30 °C1015.70 hPa93.00 %-0.70 °C 
10:45:000.30 °C1015.40 hPa93.00 %-0.70 °C 
10:30:000.20 °C1015.70 hPa93.00 %-0.80 °C 
10:15:000.10 °C1015.40 hPa93.00 %7.56 km/hW-2.50 °C-0.90 °C 
10:00:000.10 °C1015.30 hPa93.00 %5.04 km/hNNW-1.50 °C-0.90 °C 
09:45:000.10 °C1015.70 hPa93.00 %4.68 km/hNW0.10 °C-0.90 °C 
09:30:00-0.10 °C1015.60 hPa93.00 %-1.20 °C 
09:15:00-0.10 °C1015.40 hPa93.00 %-1.20 °C 
09:00:00-0.10 °C1015.30 hPa93.00 %-1.20 °C 
08:45:00-0.30 °C1015.40 hPa93.00 %-1.40 °C 
08:30:00-0.50 °C1015.30 hPa93.00 %2.52 km/hW-0.50 °C-1.60 °C 
08:15:00-0.60 °C1015.00 hPa93.00 %4.68 km/hNW-0.60 °C-1.70 °C 
08:00:00-0.80 °C1015.10 hPa93.00 %3.96 km/hWNW-0.80 °C-1.90 °C 
07:45:00-1.10 °C1015.30 hPa93.00 %-2.20 °C 
07:30:00-1.30 °C1015.10 hPa93.00 %3.60 km/hW-1.30 °C-2.40 °C 
07:15:00-1.60 °C1015.10 hPa93.00 %8.64 km/hSW-4.80 °C-2.70 °C 
07:00:00-1.80 °C1015.30 hPa92.00 %-3.10 °C 
06:45:00-2.10 °C1015.20 hPa92.00 %-3.40 °C 
06:30:00-2.50 °C1015.50 hPa92.00 %-3.80 °C 
06:15:00-2.70 °C1015.40 hPa92.00 %3.96 km/hWNW-2.70 °C-3.90 °C 
06:00:00-2.90 °C1015.50 hPa91.00 %-4.30 °C 
05:45:00-3.10 °C1015.40 hPa91.00 %-4.50 °C 
05:30:00-3.20 °C1015.60 hPa91.00 %6.12 km/hWNW-5.80 °C-4.60 °C 
05:15:00-3.40 °C1015.80 hPa91.00 %5.76 km/hNW-5.80 °C-4.80 °C 
05:00:00-3.60 °C1015.90 hPa90.00 %10.80 km/hNW-7.80 °C-5.20 °C 
04:45:00-3.80 °C1015.90 hPa90.00 %-5.40 °C 
04:30:00-3.80 °C1016.20 hPa89.00 %-5.50 °C 
04:15:00-3.80 °C1016.60 hPa89.00 %-5.50 °C 
04:00:00-3.70 °C1016.60 hPa89.00 %-5.40 °C 
03:45:00-3.70 °C1016.70 hPa89.00 %-5.40 °C 
03:30:00-3.80 °C1016.90 hPa88.00 %-5.70 °C 
03:15:00-3.70 °C1017.20 hPa87.00 %-5.80 °C 
03:00:00-3.80 °C1017.50 hPa86.00 %-6.00 °C 
02:45:00-3.80 °C1017.40 hPa85.00 %8.64 km/hWNW-7.40 °C-6.20 °C 
02:30:00-3.80 °C1017.90 hPa84.00 %-6.40 °C 
02:15:00-3.90 °C1018.10 hPa83.00 %-6.70 °C 
02:00:00-4.10 °C1018.00 hPa83.00 %4.32 km/hW-4.10 °C-6.80 °C 
01:45:00-4.20 °C1018.40 hPa82.00 %5.04 km/hW-6.40 °C-7.10 °C 
01:30:00-4.40 °C1018.20 hPa81.00 %10.80 km/hSW-8.80 °C-7.50 °C 
01:15:00-4.70 °C1018.30 hPa80.00 %-8.00 °C 
01:00:00-5.00 °C1018.30 hPa81.00 %-8.10 °C 
00:45:00-5.50 °C1018.40 hPa80.00 %-8.70 °C 
00:30:00-6.10 °C1018.80 hPa81.00 %16.20 km/hWNW-12.20 °C-9.20 °C 
00:15:00-6.60 °C1018.90 hPa81.00 %-9.60 °C 
00:00:00-6.60 °C1018.80 hPa80.00 %-9.80 °C 

Permanenter Link zu dieser Seite: Wetter im Erzgebirge am 09.02.2015
Performance-Info: Die Erstellung der Seite / Statistik(en) / Tabelle(n) erforderte 5 Datenbankserver-Abfrage(n) und dauerte 97 Millisekunden. (Dieser Messwert ist von der Gesamt-Auslastung des Servers abhängig.)
Erzgebirge - Wetter | Erzgebirge - Wetter (Mobilgeräte) | Komplette Klimadatenbank